Time;durP1;ratioP1;P1;durP2;ratioP2;P2;SDS_P1;SDS_P2;PMS_P1;PMS_P2;Temp;Humidity;BMP_temperature;BMP_pressure;BME280_temperature;BME280_humidity;BME280_pressure;Samples;Min_cycle;Max_cycle;Signal;HPM_P1;HPM_P2
2021/10/30 00:00:55;;;;;;;4.32;3.75;;;13.80;99.90;;;;;;5035723;28;20176;-79
2021/10/30 00:03:21;;;;;;;4.28;3.20;;;13.90;99.90;;;;;;5034926;28;20168;-79
2021/10/30 00:05:48;;;;;;;8.02;3.47;;;13.90;99.90;;;;;;5035063;28;20249;-79
2021/10/30 00:08:14;;;;;;;6.88;3.80;;;13.80;99.90;;;;;;5034819;28;20168;-79
2021/10/30 00:10:41;;;;;;;5.18;3.72;;;13.70;99.90;;;;;;5035201;28;20178;-81
2021/10/30 00:13:06;;;;;;;4.25;3.85;;;13.80;99.90;;;;;;5035576;28;20483;-88
2021/10/30 00:15:32;;;;;;;4.50;4.10;;;13.70;99.90;;;;;;5035269;28;20172;-81
2021/10/30 00:17:58;;;;;;;5.50;4.22;;;13.80;99.90;;;;;;5034956;28;20256;-79
2021/10/30 00:20:24;;;;;;;4.55;3.90;;;13.90;99.90;;;;;;5034800;28;20274;-79
2021/10/30 00:22:49;;;;;;;4.53;3.55;;;14.00;99.90;;;;;;5035166;28;20168;-81
2021/10/30 00:25:15;;;;;;;5.03;3.85;;;14.00;99.90;;;;;;5035116;28;20258;-79
2021/10/30 00:27:42;;;;;;;3.97;3.67;;;14.00;99.90;;;;;;5034596;28;20172;-80
2021/10/30 00:30:09;;;;;;;8.00;4.45;;;14.10;99.90;;;;;;5034450;28;20657;-79
2021/10/30 00:32:35;;;;;;;6.03;3.72;;;14.10;99.90;;;;;;5033757;28;20623;-79
2021/10/30 00:35:01;;;;;;;3.60;3.30;;;14.20;99.90;;;;;;5034778;28;20179;-79
2021/10/30 00:37:26;;;;;;;4.22;3.83;;;14.10;99.90;;;;;;5034884;28;20517;-79
2021/10/30 00:39:52;;;;;;;4.30;3.90;;;14.00;99.90;;;;;;5034788;28;20517;-79
2021/10/30 00:42:18;;;;;;;4.60;4.00;;;13.90;99.90;;;;;;5034726;28;20167;-79
2021/10/30 00:44:44;;;;;;;4.10;3.80;;;14.00;99.90;;;;;;5034519;28;20210;-78
2021/10/30 00:47:10;;;;;;;3.28;3.08;;;14.10;99.90;;;;;;5034809;28;20188;-79
2021/10/30 00:49:36;;;;;;;5.03;4.38;;;14.00;99.90;;;;;;5034453;28;20270;-79
2021/10/30 00:52:03;;;;;;;5.50;3.38;;;13.80;99.90;;;;;;5034366;28;20160;-79
2021/10/30 00:54:31;;;;;;;4.97;4.00;;;13.90;99.90;;;;;;5032912;28;20168;-79
2021/10/30 00:56:58;;;;;;;4.10;3.80;;;13.80;99.90;;;;;;5034690;28;20697;-83
2021/10/30 00:59:24;;;;;;;5.70;4.85;;;13.80;99.90;;;;;;5033812;28;20273;-79
2021/10/30 01:01:51;;;;;;;6.40;4.90;;;13.80;99.90;;;;;;5034296;28;20876;-80
2021/10/30 01:04:18;;;;;;;7.93;4.68;;;14.00;99.90;;;;;;5034306;28;20195;-81
2021/10/30 01:06:47;;;;;;;5.53;4.43;;;13.90;99.90;;;;;;5032873;28;20176;-79
2021/10/30 01:09:13;;;;;;;7.55;5.13;;;13.90;99.90;;;;;;5034166;28;20529;-79
2021/10/30 01:11:40;;;;;;;9.68;5.15;;;13.90;99.90;;;;;;5033999;28;20625;-87
2021/10/30 01:14:07;;;;;;;9.70;5.45;;;13.80;99.90;;;;;;5033957;28;20505;-79
2021/10/30 01:16:33;;;;;;;5.78;4.50;;;13.70;99.90;;;;;;5034167;28;20246;-79
2021/10/30 01:19:00;;;;;;;6.55;4.90;;;13.70;99.90;;;;;;5034065;28;20703;-78
2021/10/30 01:21:31;;;;;;;10.52;4.78;;;13.80;99.90;;;;;;5034223;28;20168;-79
2021/10/30 01:23:57;;;;;;;5.63;4.35;;;13.80;99.90;;;;;;5032628;28;20231;-79
2021/10/30 01:26:23;;;;;;;6.32;5.35;;;13.90;99.90;;;;;;5032319;28;20172;-79
2021/10/30 01:28:50;;;;;;;6.60;3.90;;;14.00;99.90;;;;;;5033648;28;20215;-81
2021/10/30 01:31:17;;;;;;;6.20;4.43;;;14.00;99.90;;;;;;5032758;28;20682;-79
2021/10/30 01:33:45;;;;;;;6.85;4.28;;;13.90;99.90;;;;;;5032926;28;20179;-79
2021/10/30 01:36:12;;;;;;;7.10;5.10;;;13.90;99.90;;;;;;5032655;28;20164;-79
2021/10/30 01:38:38;;;;;;;5.25;4.40;;;13.90;99.90;;;;;;5031589;28;20774;-79
2021/10/30 01:41:04;;;;;;;5.82;4.35;;;14.00;99.90;;;;;;5030836;28;20176;-79
2021/10/30 01:43:30;;;;;;;5.00;4.60;;;14.00;99.90;;;;;;5031218;28;20168;-79
2021/10/30 01:45:55;;;;;;;5.93;4.35;;;14.10;99.90;;;;;;5031855;28;20226;-79
2021/10/30 01:48:28;;;;;;;8.45;5.28;;;14.10;99.90;;;;;;5031947;28;20575;-79
2021/10/30 01:50:54;;;;;;;7.28;4.53;;;14.20;99.90;;;;;;5031676;28;20218;-80
2021/10/30 01:53:20;;;;;;;8.40;5.30;;;14.30;99.90;;;;;;5032377;28;20180;-79
2021/10/30 01:55:46;;;;;;;5.35;4.85;;;14.20;99.90;;;;;;5032321;28;20171;-79
2021/10/30 01:58:13;;;;;;;8.50;5.18;;;14.10;99.90;;;;;;5032324;28;20283;-79
2021/10/30 02:00:39;;;;;;;5.50;5.00;;;14.10;99.90;;;;;;5031078;28;20180;-79
2021/10/30 02:03:05;;;;;;;5.63;4.72;;;14.10;99.90;;;;;;5032557;28;20171;-79
2021/10/30 02:05:31;;;;;;;9.85;5.13;;;14.20;99.90;;;;;;5032455;28;20211;-79
2021/10/30 02:07:57;;;;;;;6.45;4.40;;;14.20;99.90;;;;;;5032655;28;20167;-79
2021/10/30 02:10:23;;;;;;;6.53;4.22;;;14.10;99.90;;;;;;5031651;28;20559;-79
2021/10/30 02:12:49;;;;;;;9.07;4.07;;;14.10;99.90;;;;;;5032050;28;20167;-79
2021/10/30 02:15:14;;;;;;;5.68;4.35;;;14.20;99.90;;;;;;5032205;28;20187;-82
2021/10/30 02:17:40;;;;;;;5.05;4.38;;;14.30;99.90;;;;;;5032506;28;20176;-78
2021/10/30 02:20:08;;;;;;;7.50;5.05;;;14.40;99.90;;;;;;5030719;28;20188;-79
2021/10/30 02:22:33;;;;;;;4.80;4.22;;;14.30;99.90;;;;;;5032062;28;20258;-79
2021/10/30 02:24:59;;;;;;;7.13;4.97;;;14.30;99.90;;;;;;5032018;28;20627;-79
2021/10/30 02:27:25;;;;;;;5.45;3.83;;;14.30;99.90;;;;;;5032337;28;20172;-79
2021/10/30 02:29:50;;;;;;;5.30;4.03;;;14.30;99.90;;;;;;5031992;28;20227;-79
2021/10/30 02:32:16;;;;;;;4.03;3.65;;;14.20;99.90;;;;;;4994381;28;1117537;-79
2021/10/30 02:34:41;;;;;;;3.80;3.47;;;14.20;99.90;;;;;;5032829;28;20418;-79
2021/10/30 02:37:11;;;;;;;6.15;4.55;;;14.20;99.90;;;;;;5032842;28;20160;-79
2021/10/30 02:39:36;;;;;;;10.25;4.07;;;14.30;99.90;;;;;;5032528;28;20201;-79
2021/10/30 02:42:02;;;;;;;5.82;3.53;;;14.30;99.90;;;;;;5032742;28;20167;-79
2021/10/30 02:44:28;;;;;;;7.18;4.00;;;14.30;99.90;;;;;;5031173;28;20231;-79
2021/10/30 02:46:53;;;;;;;4.07;3.53;;;14.30;99.90;;;;;;5032396;28;20176;-79
2021/10/30 02:49:20;;;;;;;5.10;3.90;;;14.30;99.90;;;;;;5032184;28;20306;-79
2021/10/30 02:51:46;;;;;;;4.22;3.83;;;14.20;99.90;;;;;;5032861;28;20238;-79
2021/10/30 02:54:11;;;;;;;3.83;3.53;;;14.10;99.90;;;;;;5031433;28;20175;-78
2021/10/30 02:56:37;;;;;;;6.93;4.10;;;14.10;99.90;;;;;;5032176;28;20183;-79
2021/10/30 02:59:03;;;;;;;4.85;3.92;;;14.20;99.90;;;;;;5032398;28;20184;-79
2021/10/30 03:01:28;;;;;;;8.50;3.97;;;14.20;99.90;;;;;;5032465;28;20202;-79
2021/10/30 03:03:54;;;;;;;5.43;4.10;;;14.10;99.90;;;;;;5032224;28;20168;-78
2021/10/30 03:06:22;;;;;;;4.03;3.50;;;14.00;99.90;;;;;;5032423;28;20172;-79
2021/10/30 03:08:49;;;;;;;5.47;4.68;;;14.00;99.90;;;;;;5032063;28;20278;-79
2021/10/30 03:11:15;;;;;;;5.22;4.22;;;14.00;99.90;;;;;;5032357;28;20171;-80
2021/10/30 03:13:40;;;;;;;4.35;3.88;;;14.00;99.90;;;;;;5032595;28;20718;-78
2021/10/30 03:16:06;;;;;;;6.85;4.60;;;14.20;99.90;;;;;;5032248;28;20171;-79
2021/10/30 03:18:32;;;;;;;5.82;4.32;;;14.30;99.90;;;;;;5032091;28;20241;-78
2021/10/30 03:20:58;;;;;;;4.43;4.03;;;14.20;99.90;;;;;;5032143;28;20199;-79
2021/10/30 03:23:24;;;;;;;5.47;4.18;;;14.20;99.90;;;;;;5035433;28;20207;-78
2021/10/30 03:25:49;;;;;;;5.90;4.20;;;14.30;99.90;;;;;;5036352;28;20730;-79
2021/10/30 03:28:15;;;;;;;8.32;4.13;;;14.30;99.90;;;;;;5036130;28;20221;-79
2021/10/30 03:30:43;;;;;;;5.90;4.40;;;14.30;99.90;;;;;;5036156;28;20294;-79
2021/10/30 03:33:10;;;;;;;5.20;4.25;;;14.30;99.90;;;;;;5036310;28;20179;-79
2021/10/30 03:35:35;;;;;;;6.30;4.05;;;14.30;99.90;;;;;;5035835;28;20197;-79
2021/10/30 03:38:01;;;;;;;5.03;4.22;;;14.40;99.90;;;;;;5035893;28;20178;-79
2021/10/30 03:40:27;;;;;;;7.45;4.82;;;14.50;99.90;;;;;;5036037;28;20265;-80
2021/10/30 03:42:53;;;;;;;7.80;4.10;;;14.60;99.90;;;;;;5035988;28;20630;-79
2021/10/30 03:45:18;;;;;;;4.55;4.15;;;14.60;99.90;;;;;;5035686;28;20200;-79
2021/10/30 03:47:44;;;;;;;4.45;4.07;;;14.60;99.90;;;;;;5035674;28;20200;-79
2021/10/30 03:50:10;;;;;;;4.75;4.32;;;14.40;99.90;;;;;;5035352;28;20261;-79
2021/10/30 03:52:36;;;;;;;9.13;3.72;;;14.40;99.90;;;;;;5035797;28;20201;-79
2021/10/30 03:55:04;;;;;;;4.15;3.75;;;14.30;99.90;;;;;;5035551;28;20171;-79
2021/10/30 03:57:29;;;;;;;10.07;4.10;;;14.30;99.90;;;;;;5035826;28;20222;-79
2021/10/30 03:59:55;;;;;;;6.95;4.05;;;14.30;99.90;;;;;;5035380;28;20188;-79
2021/10/30 04:02:21;;;;;;;4.28;3.50;;;14.30;99.90;;;;;;5035612;28;20247;-79
2021/10/30 04:04:46;;;;;;;7.75;3.42;;;14.20;99.90;;;;;;5035612;28;20247;-79
2021/10/30 04:07:12;;;;;;;4.10;3.70;;;14.10;99.90;;;;;;5034218;28;20598;-78
2021/10/30 04:09:38;;;;;;;3.65;3.35;;;14.10;99.90;;;;;;5035456;28;20267;-79
2021/10/30 04:12:04;;;;;;;4.80;3.72;;;14.00;99.90;;;;;;5035280;28;20251;-79
2021/10/30 04:14:30;;;;;;;9.48;3.70;;;14.10;99.90;;;;;;5035021;28;20539;-79
2021/10/30 04:16:55;;;;;;;4.25;3.65;;;14.10;99.90;;;;;;5035242;28;20183;-79
2021/10/30 04:19:21;;;;;;;4.22;3.63;;;14.30;99.90;;;;;;5034832;28;20203;-79
2021/10/30 04:21:46;;;;;;;7.97;3.58;;;14.30;99.90;;;;;;5033981;28;20175;-79
2021/10/30 04:24:12;;;;;;;7.13;3.85;;;14.20;99.90;;;;;;5035255;28;20235;-79
2021/10/30 04:26:39;;;;;;;4.65;3.83;;;14.30;99.90;;;;;;5035173;28;20595;-79
2021/10/30 04:29:05;;;;;;;5.30;3.85;;;14.30;99.90;;;;;;5035057;28;20269;-79
2021/10/30 04:31:31;;;;;;;3.50;3.20;;;14.30;99.90;;;;;;5035003;28;20179;-79
2021/10/30 04:34:00;;;;;;;7.57;3.38;;;14.30;99.90;;;;;;5034196;28;20160;-78
2021/10/30 04:36:29;;;;;;;5.22;3.08;;;14.30;99.90;;;;;;5034786;28;20168;-79
2021/10/30 04:38:55;;;;;;;5.85;3.60;;;14.20;99.90;;;;;;5034844;28;20187;-78
2021/10/30 04:41:21;;;;;;;4.70;3.30;;;14.20;99.90;;;;;;5034971;28;20174;-79
2021/10/30 04:43:48;;;;;;;4.40;3.85;;;14.20;99.90;;;;;;5035118;28;20225;-79
2021/10/30 04:46:19;;;;;;;8.75;3.42;;;14.20;99.90;;;;;;5035028;28;20172;-79
2021/10/30 04:48:45;;;;;;;6.00;3.75;;;14.10;99.90;;;;;;5034306;28;20195;-79
2021/10/30 04:51:11;;;;;;;7.95;4.45;;;14.20;99.90;;;;;;5034657;28;20168;-79
2021/10/30 04:53:39;;;;;;;5.65;2.95;;;14.10;99.90;;;;;;5034390;28;20168;-79
2021/10/30 04:56:06;;;;;;;3.85;3.45;;;14.10;99.90;;;;;;5034156;28;20635;-79
2021/10/30 04:58:33;;;;;;;3.50;3.20;;;14.00;99.90;;;;;;5034310;28;20259;-79
2021/10/30 05:01:00;;;;;;;3.58;3.28;;;14.00;99.90;;;;;;5034693;28;20218;-78
2021/10/30 05:03:26;;;;;;;4.28;3.50;;;13.90;99.90;;;;;;5034599;28;20792;-79
2021/10/30 05:05:52;;;;;;;4.47;3.25;;;13.80;99.90;;;;;;5032914;28;20210;-79
2021/10/30 05:08:18;;;;;;;4.60;3.97;;;13.90;99.90;;;;;;5034169;28;20624;-79
2021/10/30 05:10:43;;;;;;;4.75;4.30;;;13.90;99.90;;;;;;5034160;28;20182;-78
2021/10/30 05:13:10;;;;;;;8.57;3.83;;;14.10;99.90;;;;;;5034210;28;20243;-79
2021/10/30 05:15:35;;;;;;;4.97;3.55;;;13.90;99.90;;;;;;5034245;28;20263;-79
2021/10/30 05:18:01;;;;;;;3.92;3.55;;;13.90;99.90;;;;;;5034273;28;20294;-79
2021/10/30 05:20:27;;;;;;;6.35;3.40;;;13.80;99.90;;;;;;5033956;28;20172;-79
2021/10/30 05:22:53;;;;;;;4.95;3.65;;;13.80;99.90;;;;;;5033899;28;20168;-79
2021/10/30 05:25:19;;;;;;;7.85;3.83;;;13.70;99.90;;;;;;5033869;28;20559;-79
2021/10/30 05:27:45;;;;;;;3.67;3.38;;;13.70;99.90;;;;;;5033841;28;20241;-78
2021/10/30 05:30:10;;;;;;;3.63;3.10;;;13.80;99.90;;;;;;5032667;28;20188;-79
2021/10/30 05:32:36;;;;;;;3.47;3.17;;;13.90;99.90;;;;;;5033893;28;20273;-79
2021/10/30 05:35:02;;;;;;;3.05;2.72;;;13.90;99.90;;;;;;5033918;28;20312;-80
2021/10/30 05:37:28;;;;;;;4.55;3.38;;;13.80;99.90;;;;;;5034053;28;20178;-79
2021/10/30 05:39:53;;;;;;;10.23;3.00;;;14.00;99.90;;;;;;5033685;28;20279;-80
2021/10/30 05:42:19;;;;;;;9.02;3.25;;;14.00;99.90;;;;;;5033770;28;20526;-79
2021/10/30 05:44:45;;;;;;;4.25;3.28;;;14.00;99.90;;;;;;5032595;28;20634;-79
2021/10/30 05:47:11;;;;;;;4.28;3.22;;;13.90;99.90;;;;;;5033407;28;20213;-80
2021/10/30 05:49:40;;;;;;;3.55;3.25;;;13.90;99.90;;;;;;5033179;28;20206;-79
2021/10/30 05:52:07;;;;;;;4.40;3.08;;;13.80;99.90;;;;;;5033668;28;20218;-80
2021/10/30 05:54:33;;;;;;;4.43;3.70;;;13.80;99.90;;;;;;5033720;28;20164;-80
2021/10/30 05:56:59;;;;;;;3.78;3.47;;;13.70;99.90;;;;;;5033683;28;20156;-79
2021/10/30 05:59:30;;;;;;;5.25;3.03;;;13.80;99.90;;;;;;5033330;28;20318;-79
2021/10/30 06:01:56;;;;;;;6.05;3.60;;;13.80;99.90;;;;;;5033174;28;20160;-79
2021/10/30 06:04:22;;;;;;;5.22;3.33;;;13.80;99.90;;;;;;5033469;28;20195;-79
2021/10/30 06:06:48;;;;;;;3.00;2.80;;;13.70;99.90;;;;;;5033048;28;20246;-79
2021/10/30 06:09:13;;;;;;;8.85;3.30;;;13.80;99.90;;;;;;5032028;28;20230;-78
2021/10/30 06:11:40;;;;;;;4.55;3.10;;;13.70;99.90;;;;;;5033296;28;20644;-79
2021/10/30 06:14:06;;;;;;;4.03;3.60;;;13.80;99.90;;;;;;5032926;28;20167;-78
2021/10/30 06:16:33;;;;;;;3.33;2.67;;;13.80;99.90;;;;;;5033281;28;20524;-79
2021/10/30 06:18:59;;;;;;;3.78;3.40;;;13.80;99.90;;;;;;5032811;28;20373;-79
2021/10/30 06:21:27;;;;;;;3.67;3.22;;;13.90;99.90;;;;;;5033056;28;20250;-78
2021/10/30 06:23:58;;;;;;;3.63;3.30;;;14.00;99.90;;;;;;5031685;28;20167;-80
2021/10/30 06:26:28;;;;;;;4.03;3.53;;;13.90;99.90;;;;;;5032966;28;20171;-79
2021/10/30 06:28:54;;;;;;;4.75;3.03;;;13.90;99.90;;;;;;5032740;28;20191;-79
2021/10/30 06:31:21;;;;;;;4.38;3.97;;;14.00;99.90;;;;;;5032457;28;20179;-82
2021/10/30 06:33:47;;;;;;;7.28;3.53;;;13.90;99.90;;;;;;5032929;28;20168;-79
2021/10/30 06:36:13;;;;;;;4.05;3.28;;;14.00;99.90;;;;;;5032829;28;20176;-79
2021/10/30 06:38:39;;;;;;;3.45;3.15;;;14.10;99.90;;;;;;5032938;28;20193;-79
2021/10/30 06:41:06;;;;;;;3.50;3.20;;;14.00;99.90;;;;;;5031327;28;20175;-79
2021/10/30 06:43:33;;;;;;;6.03;3.63;;;14.00;99.90;;;;;;5032893;28;20168;-79
2021/10/30 06:45:59;;;;;;;4.53;3.75;;;14.00;99.90;;;;;;5033340;28;20235;-83
2021/10/30 06:48:24;;;;;;;5.65;3.28;;;13.90;99.90;;;;;;5032594;28;20215;-82
2021/10/30 06:50:52;;;;;;;3.58;2.90;;;14.00;99.90;;;;;;5031969;28;20655;-80
2021/10/30 06:53:17;;;;;;;4.70;2.92;;;14.00;99.90;;;;;;5033753;28;20178;-79
2021/10/30 06:55:43;;;;;;;5.47;2.67;;;13.90;99.90;;;;;;5031904;28;20254;-78
2021/10/30 06:58:09;;;;;;;3.28;2.97;;;14.00;99.90;;;;;;5030827;28;20163;-81
2021/10/30 07:00:35;;;;;;;6.57;2.75;;;14.00;99.90;;;;;;5032386;28;20252;-79
2021/10/30 07:03:01;;;;;;;3.25;2.95;;;14.00;99.90;;;;;;5032238;28;20170;-78
2021/10/30 07:05:27;;;;;;;12.43;2.75;;;14.20;99.90;;;;;;5031869;28;20231;-79
2021/10/30 07:07:52;;;;;;;3.17;2.92;;;14.30;99.90;;;;;;5032064;28;20170;-82
2021/10/30 07:10:18;;;;;;;5.15;2.80;;;14.10;99.90;;;;;;5031573;28;20188;-79
2021/10/30 07:12:44;;;;;;;4.78;2.38;;;14.10;99.90;;;;;;5032181;28;20168;-78
2021/10/30 07:15:12;;;;;;;2.85;2.55;;;14.00;99.90;;;;;;5031803;28;20163;-78
2021/10/30 07:17:39;;;;;;;6.13;3.28;;;14.00;99.90;;;;;;5032045;28;20247;-78
2021/10/30 07:20:06;;;;;;;2.63;2.42;;;14.00;99.90;;;;;;5031832;28;20187;-79
2021/10/30 07:22:43;;;;;;;2.92;2.13;;;13.90;99.90;;;;;;5030813;28;20200;-78
2021/10/30 07:25:09;;;;;;;3.67;2.17;;;14.00;99.90;;;;;;5031736;28;20230;-79
2021/10/30 07:27:35;;;;;;;6.78;2.30;;;14.00;99.90;;;;;;5030331;28;20195;-79
2021/10/30 07:30:00;;;;;;;4.55;2.70;;;13.90;99.90;;;;;;5031695;28;20555;-79
2021/10/30 07:32:27;;;;;;;4.35;2.97;;;13.90;99.90;;;;;;5031479;28;20718;-83
2021/10/30 07:34:53;;;;;;;3.63;2.65;;;14.00;99.90;;;;;;5031928;28;20168;-79
2021/10/30 07:37:18;;;;;;;2.47;2.28;;;14.00;99.90;;;;;;5031954;28;20246;-78
2021/10/30 07:39:45;;;;;;;4.32;2.70;;;14.00;99.90;;;;;;5031727;28;20267;-78
2021/10/30 07:42:11;;;;;;;4.03;3.08;;;14.00;99.90;;;;;;5032048;28;20214;-78
2021/10/30 07:44:42;;;;;;;4.10;2.55;;;14.10;99.90;;;;;;5031737;28;20199;-79
2021/10/30 07:47:09;;;;;;;4.38;2.63;;;14.10;99.90;;;;;;5031782;28;20172;-80
2021/10/30 07:49:36;;;;;;;4.15;2.40;;;14.10;99.90;;;;;;5030086;28;20555;-79
2021/10/30 07:52:06;;;;;;;5.53;2.65;;;14.10;99.90;;;;;;5011953;28;20546;-79
2021/10/30 07:54:34;;;;;;;3.10;2.15;;;14.00;99.90;;;;;;5024940;28;20206;-80
2021/10/30 07:57:04;;;;;;;4.65;2.83;;;13.90;99.90;;;;;;5030747;28;20171;-81
2021/10/30 07:59:31;;;;;;;3.38;3.08;;;14.10;99.90;;;;;;5030918;28;20266;-82
2021/10/30 08:01:57;;;;;;;4.05;3.20;;;14.10;99.90;;;;;;5029409;28;20794;-80
2021/10/30 08:04:23;;;;;;;3.03;2.72;;;14.00;99.90;;;;;;5030288;28;20242;-81
2021/10/30 08:06:49;;;;;;;4.80;2.33;;;14.00;99.90;;;;;;5029816;28;20156;-80
2021/10/30 08:09:15;;;;;;;2.58;2.38;;;14.10;99.90;;;;;;5032409;28;20191;-81
2021/10/30 08:11:40;;;;;;;4.28;2.40;;;14.20;99.90;;;;;;5035226;28;20264;-80
2021/10/30 08:14:06;;;;;;;2.20;2.00;;;14.20;99.90;;;;;;5033810;28;20518;-79
2021/10/30 08:16:32;;;;;;;2.88;2.53;;;14.00;99.90;;;;;;5048951;28;20176;-78
2021/10/30 08:18:58;;;;;;;2.90;2.65;;;14.00;99.90;;;;;;5048127;28;20204;-79
2021/10/30 08:21:24;;;;;;;2.35;2.15;;;14.00;99.90;;;;;;5047242;28;20183;-81
2021/10/30 08:23:50;;;;;;;2.97;2.33;;;14.00;99.90;;;;;;5035732;28;20182;-79
2021/10/30 08:26:17;;;;;;;3.13;2.28;;;13.90;99.90;;;;;;5042448;28;20191;-81
2021/10/30 08:28:44;;;;;;;2.45;2.17;;;13.90;99.90;;;;;;5039600;28;20191;-80
2021/10/30 08:31:13;;;;;;;2.60;2.40;;;14.00;99.90;;;;;;5034400;28;20187;-78
2021/10/30 08:33:38;;;;;;;2.60;1.92;;;14.10;99.90;;;;;;5034415;28;20235;-78
2021/10/30 08:36:05;;;;;;;4.38;2.58;;;14.20;99.90;;;;;;5034384;28;20636;-77
2021/10/30 08:38:32;;;;;;;3.00;2.50;;;14.20;99.90;;;;;;5034243;28;20182;-77
2021/10/30 08:40:59;;;;;;;3.67;2.20;;;14.20;99.90;;;;;;5034098;28;20254;-78
2021/10/30 08:43:26;;;;;;;2.80;2.15;;;14.20;99.90;;;;;;5034386;28;20555;-78
2021/10/30 08:45:53;;;;;;;3.83;2.40;;;14.30;99.90;;;;;;5034158;28;20207;-77
2021/10/30 08:48:24;;;;;;;16.33;6.45;;;14.30;99.90;;;;;;5033401;28;20174;-78
2021/10/30 08:50:51;;;;;;;2.63;2.28;;;14.30;99.90;;;;;;5033249;28;20250;-78
2021/10/30 08:53:17;;;;;;;2.83;2.03;;;14.10;99.90;;;;;;5034283;28;20247;-79
2021/10/30 08:55:43;;;;;;;2.15;1.90;;;14.10;99.90;;;;;;5034341;28;20249;-77
2021/10/30 08:58:11;;;;;;;5.97;2.25;;;14.10;99.90;;;;;;5034225;28;20164;-77
2021/10/30 09:00:45;;;;;;;5.30;2.10;;;14.10;99.90;;;;;;5034784;28;20613;-93
2021/10/30 09:03:12;;;;;;;2.10;1.90;;;14.10;99.90;;;;;;5035584;28;20194;-78
2021/10/30 09:05:40;;;;;;;5.10;2.10;;;14.10;99.90;;;;;;5033481;28;20269;-79
2021/10/30 09:08:07;;;;;;;2.90;2.22;;;14.00;99.90;;;;;;5033587;28;20651;-77
2021/10/30 09:10:53;;;;;;;3.90;2.70;;;14.10;99.90;;;;;;5033671;28;20176;-74
2021/10/30 09:13:20;;;;;;;4.85;2.67;;;14.20;99.90;;;;;;5036277;28;20175;-86
2021/10/30 09:15:55;;;;;;;2.25;2.05;;;14.20;99.90;;;;;;5044336;28;20186;-80
2021/10/30 09:18:28;;;;;;;2.55;2.17;;;14.30;99.90;;;;;;5044655;28;20191;-89
2021/10/30 09:20:56;;;;;;;2.03;1.90;;;14.40;99.90;;;;;;5034586;28;20168;-84
2021/10/30 09:23:28;;;;;;;3.03;2.53;;;14.40;99.90;;;;;;5035461;28;20247;-93
2021/10/30 09:26:03;;;;;;;2.97;2.25;;;14.40;99.90;;;;;;5036955;28;20199;-93
2021/10/30 09:28:33;;;;;;;2.88;2.25;;;14.40;99.90;;;;;;5034892;28;20262;-81
2021/10/30 09:31:03;;;;;;;3.70;2.10;;;14.30;99.90;;;;;;5034000;28;20160;-86
2021/10/30 09:33:31;;;;;;;5.03;1.90;;;14.40;99.90;;;;;;5034932;28;20290;-91
2021/10/30 09:35:58;;;;;;;3.58;2.00;;;14.30;99.90;;;;;;5035332;28;20174;-91
2021/10/30 09:38:38;;;;;;;6.50;2.15;;;14.30;99.90;;;;;;5034866;28;20545;-85
2021/10/30 09:41:22;;;;;;;2.10;1.60;;;14.30;99.90;;;;;;5042004;28;20180;-81
2021/10/30 09:43:58;;;;;;;3.30;2.33;;;14.40;99.90;;;;;;5034646;28;20167;-85
2021/10/30 09:46:25;;;;;;;3.33;1.83;;;14.50;99.90;;;;;;5034675;28;20191;-79
2021/10/30 09:48:53;;;;;;;4.90;2.30;;;14.50;99.90;;;;;;5033858;28;20206;-93
2021/10/30 09:51:30;;;;;;;2.45;2.13;;;14.60;99.90;;;;;;5035297;28;20179;-88
2021/10/30 09:53:56;;;;;;;1.90;1.75;;;14.60;99.90;;;;;;5035141;28;20164;-88
2021/10/30 09:56:21;;;;;;;2.38;1.90;;;14.70;99.90;;;;;;5035446;28;20164;-86
2021/10/30 09:58:47;;;;;;;2.47;2.28;;;14.90;99.90;;;;;;5034672;28;20184;-89
2021/10/30 10:01:16;;;;;;;6.65;1.90;;;14.80;99.90;;;;;;5033876;28;20213;-88
2021/10/30 10:03:43;;;;;;;2.63;1.65;;;14.90;99.90;;;;;;5034419;28;20175;-90
2021/10/30 10:06:12;;;;;;;5.60;3.97;;;15.10;99.90;;;;;;5034283;28;20571;-89
2021/10/30 10:08:39;;;;;;;3.83;1.92;;;15.10;99.90;;;;;;5032838;28;20679;-79
2021/10/30 10:11:15;;;;;;;8.00;1.70;;;15.10;99.90;;;;;;5032922;28;20171;-91
2021/10/30 10:13:42;;;;;;;2.15;1.85;;;15.00;99.90;;;;;;5032400;28;20171;-79
2021/10/30 10:16:13;;;;;;;3.33;1.80;;;15.10;99.90;;;;;;5031869;28;20234;-79
2021/10/30 10:18:59;;;;;;;2.53;2.03;;;15.20;99.90;;;;;;5032876;28;20191;-79
2021/10/30 10:21:32;;;;;;;3.13;1.65;;;15.10;99.90;;;;;;5033725;28;20180;-80
2021/10/30 10:24:21;;;;;;;1.75;1.65;;;15.20;99.90;;;;;;5033452;28;20263;-79
2021/10/30 10:26:51;;;;;;;1.75;1.50;;;15.40;99.90;;;;;;5018845;28;20184;-78
2021/10/30 10:29:33;;;;;;;4.30;1.70;;;15.50;99.90;;;;;;5032512;28;20545;-78
2021/10/30 10:32:02;;;;;;;2.70;2.20;;;15.60;99.90;;;;;;5032082;28;20168;-79
2021/10/30 10:34:31;;;;;;;2.40;1.90;;;15.60;99.90;;;;;;5032412;28;20164;-78
2021/10/30 10:37:11;;;;;;;2.28;1.52;;;15.60;99.90;;;;;;5032448;28;20176;-83
2021/10/30 10:39:42;;;;;;;1.60;1.50;;;15.50;99.90;;;;;;5032052;28;20191;-79
2021/10/30 10:42:09;;;;;;;1.55;1.40;;;15.30;99.90;;;;;;5032258;28;20191;-79
2021/10/30 10:44:40;;;;;;;2.58;2.13;;;15.50;99.90;;;;;;5032160;28;20248;-78
2021/10/30 10:47:07;;;;;;;2.90;1.40;;;15.50;99.90;;;;;;5032149;28;20723;-78
2021/10/30 10:52:15;;;;;;;1.42;1.33;;;15.40;99.90;;;;;;5031974;28;20172;-79
2021/10/30 10:54:53;;;;;;;6.88;1.42;;;15.60;99.90;;;;;;5031802;28;20234;-78
2021/10/30 10:57:24;;;;;;;2.38;1.73;;;15.70;99.90;;;;;;5031414;28;20164;-79
2021/10/30 11:00:15;;;;;;;4.07;1.67;;;15.90;99.90;;;;;;5031719;28;20214;-79
2021/10/30 11:02:53;;;;;;;1.48;1.38;;;16.00;99.90;;;;;;5032029;28;20182;-78
2021/10/30 11:05:21;;;;;;;4.45;1.50;;;16.00;99.90;;;;;;5031880;28;20209;-78
2021/10/30 11:07:50;;;;;;;1.20;1.10;;;15.90;99.90;;;;;;5031538;28;20171;-78
2021/10/30 11:10:26;;;;;;;2.05;1.50;;;15.80;99.90;;;;;;5031748;28;20234;-79
2021/10/30 11:13:08;;;;;;;2.67;1.80;;;15.80;99.90;;;;;;5031787;28;20218;-80
2021/10/30 11:15:48;;;;;;;1.25;1.13;;;15.90;99.90;;;;;;5031872;28;20255;-78
2021/10/30 11:21:25;;;;;;;1.77;1.40;;;16.20;99.90;;;;;;5032069;28;20172;-85
2021/10/30 11:23:54;;;;;;;1.60;1.10;;;16.10;99.90;;;;;;5031838;28;20167;-78
2021/10/30 11:26:23;;;;;;;2.35;1.38;;;16.10;99.90;;;;;;5031742;28;20345;-78
2021/10/30 11:28:50;;;;;;;2.38;1.60;;;16.20;99.90;;;;;;5031454;28;20234;-79
2021/10/30 11:31:18;;;;;;;1.35;1.25;;;16.20;99.90;;;;;;5031919;28;20183;-78
2021/10/30 11:33:45;;;;;;;2.45;1.20;;;16.10;99.90;;;;;;5031694;28;20632;-92
2021/10/30 11:36:15;;;;;;;1.20;1.10;;;15.90;99.90;;;;;;5032014;28;20255;-77
2021/10/30 11:38:46;;;;;;;1.67;1.58;;;15.80;99.90;;;;;;5031106;28;20210;-78
2021/10/30 11:41:16;;;;;;;1.77;1.48;;;15.90;99.90;;;;;;5031322;28;20164;-79
2021/10/30 11:43:44;;;;;;;1.65;1.55;;;16.00;99.90;;;;;;5032932;28;20186;-79
2021/10/30 11:46:13;;;;;;;2.47;1.30;;;16.10;99.90;;;;;;5035414;28;20203;-80
2021/10/30 11:48:48;;;;;;;1.90;1.77;;;16.30;99.90;;;;;;5035304;28;20663;-78
2021/10/30 11:51:15;;;;;;;1.20;1.02;;;16.30;99.90;;;;;;5035409;28;20182;-78
2021/10/30 11:53:51;;;;;;;1.10;1.10;;;16.40;99.90;;;;;;5035371;28;20164;-78
2021/10/30 11:56:25;;;;;;;1.10;1.00;;;16.50;99.90;;;;;;5035075;28;20273;-84
2021/10/30 11:58:54;;;;;;;1.20;1.10;;;16.60;99.90;;;;;;5035025;28;20298;-79
2021/10/30 12:01:41;;;;;;;1.40;1.30;;;16.20;99.90;;;;;;5035399;28;20167;-81
2021/10/30 12:04:07;;;;;;;1.58;1.33;;;16.40;99.90;;;;;;5032842;28;20164;-78
2021/10/30 12:06:36;;;;;;;2.20;1.60;;;16.40;99.90;;;;;;5033852;28;20164;-78
2021/10/30 12:09:02;;;;;;;1.23;1.13;;;16.50;99.90;;;;;;5033949;28;20194;-78
2021/10/30 12:11:29;;;;;;;1.10;1.00;;;16.40;99.90;;;;;;5035241;28;20170;-78
2021/10/30 12:13:59;;;;;;;3.65;1.08;;;16.40;99.90;;;;;;5035414;28;20164;-78
2021/10/30 12:16:26;;;;;;;1.25;1.15;;;16.20;99.90;;;;;;5035197;28;20168;-78
2021/10/30 12:18:54;;;;;;;1.42;1.20;;;16.00;99.90;;;;;;5034917;28;20636;-78
2021/10/30 12:21:20;;;;;;;5.03;1.15;;;16.00;99.90;;;;;;5034801;28;20761;-78
2021/10/30 12:24:01;;;;;;;0.80;0.80;;;15.90;99.90;;;;;;5033669;28;20164;-82
2021/10/30 12:26:50;;;;;;;1.48;1.38;;;15.80;99.90;;;;;;5033303;28;20184;-81
2021/10/30 12:29:17;;;;;;;1.90;1.30;;;16.00;99.90;;;;;;5034164;28;20238;-81
2021/10/30 12:32:03;;;;;;;1.17;1.10;;;16.00;99.90;;;;;;5033168;28;20179;-81
2021/10/30 12:34:30;;;;;;;1.10;0.90;;;16.10;99.90;;;;;;5033367;28;20273;-78
2021/10/30 12:36:58;;;;;;;1.42;1.08;;;16.00;99.90;;;;;;5034562;28;20208;-78
2021/10/30 12:39:24;;;;;;;1.15;1.05;;;16.10;99.90;;;;;;5034628;28;20187;-75
2021/10/30 12:41:57;;;;;;;6.72;1.45;;;16.10;99.90;;;;;;5034476;28;20221;-76
2021/10/30 12:44:31;;;;;;;2.28;0.80;;;16.00;99.90;;;;;;5034527;28;20194;-75
2021/10/30 12:47:00;;;;;;;1.50;0.90;;;16.10;99.90;;;;;;5034305;28;20226;-75
2021/10/30 12:49:28;;;;;;;1.30;1.10;;;16.30;99.90;;;;;;5033703;28;20238;-76
2021/10/30 12:52:05;;;;;;;1.15;1.05;;;16.20;99.90;;;;;;5032372;28;20176;-75
2021/10/30 12:54:31;;;;;;;1.45;1.10;;;16.00;99.90;;;;;;5033481;28;20180;-77